Time;durP1;ratioP1;P1;durP2;ratioP2;P2;SDS_P1;SDS_P2;PMS_P1;PMS_P2;Temp;Humidity;BMP_temperature;BMP_pressure;BME280_temperature;BME280_humidity;BME280_pressure;Samples;Min_cycle;Max_cycle;Signal;HPM_P1;HPM_P2
2022/11/03 00:01:16;;;;;;;;;;;;;;;;;;;;;
2022/11/03 00:03:52;;;;;;;;;;;;;;;;;;;;;
2022/11/03 00:06:24;;;;;;;115.43;53.50;;;;;;;15.10;100.00;95036.06;5001120;28;20338;-94
2022/11/03 00:12:12;;;;;;;216.55;49.38;;;;;;;15.44;100.00;95033.59;5017182;28;20255;-92
2022/11/03 00:14:37;;;;;;;91.18;46.40;;;;;;;15.57;100.00;95045.34;4983984;28;20026;-93
2022/11/03 00:17:13;;;;;;;;;;;;;;;;;;;;;
2022/11/03 00:19:39;;;;;;;82.43;42.90;;;;;;;15.73;100.00;95045.94;5001414;28;20032;-94
2022/11/03 00:22:04;;;;;;;82.55;43.17;;;;;;;15.81;100.00;95040.81;5000547;28;20121;-93
2022/11/03 00:24:32;;;;;;;80.22;42.38;;;;;;;15.89;100.00;95054.47;4999530;28;20041;-93
2022/11/03 00:27:05;;;;;;;74.28;41.25;;;;;;;15.89;100.00;95047.34;4983088;28;20453;-95
2022/11/03 00:29:33;;;;;;;81.30;42.10;;;;;;;15.81;100.00;95043.44;4986438;28;20316;-93
2022/11/03 00:32:00;;;;;;;82.93;42.45;;;;;;;15.91;100.00;95047.84;4987817;28;20030;-94
2022/11/03 00:34:26;;;;;;;77.80;41.58;;;;;;;15.92;100.00;95044.16;4986287;28;20026;-95
2022/11/03 00:36:59;;;;;;;109.30;42.92;;;;;;;15.81;100.00;95046.09;5001955;28;20116;-94
2022/11/03 00:39:24;;;;;;;77.50;40.40;;;;;;;15.84;100.00;95056.09;4986312;28;20149;-93
2022/11/03 00:42:00;;;;;;;;;;;;;;;;;;;;;
2022/11/03 00:44:33;;;;;;;316.90;40.67;;;;;;;15.32;100.00;95052.47;5001092;28;20026;-94
2022/11/03 00:47:08;;;;;;;;;;;;;;;;;;;;;
2022/11/03 00:49:34;;;;;;;67.18;38.63;;;;;;;15.52;100.00;95046.19;5001321;28;20022;-94
2022/11/03 00:51:59;;;;;;;113.57;38.45;;;;;;;15.66;100.00;95043.63;4983476;28;20117;-93
2022/11/03 00:54:25;;;;;;;79.22;40.80;;;;;;;15.80;100.00;95041.09;4999279;28;20347;-94
2022/11/03 00:57:00;;;;;;;;;;;;;;;;;;;;;
2022/11/03 00:59:28;;;;;;;102.43;39.75;;;;;;;15.71;100.00;95034.88;5001860;28;20032;-94
2022/11/03 01:01:56;;;;;;;498.27;57.17;;;;;;;15.06;100.00;95029.78;4987208;28;20040;-94
2022/11/03 01:07:06;;;;;;;89.45;44.75;;;;;;;15.55;100.00;95032.41;5005528;28;20037;-94
2022/11/03 01:09:39;;;;;;;145.23;48.33;;;;;;;15.69;100.00;95035.13;5003308;28;20343;-94
2022/11/03 01:12:09;;;;;;;;;;;;;;;15.88;100.00;95029.88;4987537;28;20446;-93
2022/11/03 01:14:40;;;;;;;84.00;41.30;;;;;;;15.63;100.00;95031.78;5004058;28;19910;-94
2022/11/03 01:17:10;;;;;;;78.10;41.55;;;;;;;15.83;100.00;95024.69;5003121;28;20037;-94
2022/11/03 01:19:38;;;;;;;266.42;49.45;;;;;;;14.95;100.00;95023.78;4987056;28;20033;-95
2022/11/03 01:22:11;;;;;;;368.30;51.85;;;;;;;14.73;100.00;95008.41;4987137;28;20120;-94
2022/11/03 01:27:17;;;;;;;78.47;42.22;;;;;;;15.24;100.00;95007.13;5004401;28;20043;-95
2022/11/03 01:29:53;;;;;;;108.25;44.67;;;;;;;15.44;100.00;95004.53;4973110;28;20102;-96
2022/11/03 01:32:19;;;;;;;90.55;44.72;;;;;;;15.33;100.00;94995.97;4969986;28;20036;-96
2022/11/03 01:34:44;;;;;;;90.85;44.70;;;;;;;15.22;100.00;95004.00;4969368;28;20030;-95
2022/11/03 01:37:12;;;;;;;132.32;46.63;;;;;;;15.09;100.00;95002.81;4967869;28;20027;-95
2022/11/03 01:43:22;;;;;;;178.95;48.13;;;;;;;15.36;100.00;95014.69;5002137;28;20037;-95
2022/11/03 01:46:24;;;;;;;;;;;;;;;;;;;;;
2022/11/03 01:49:05;;;;;;;87.28;43.60;;;;;;;15.27;100.00;94993.38;4995178;28;20200;-95
2022/11/03 01:51:34;;;;;;;79.65;40.88;;;;;;;15.47;100.00;95001.34;4970217;28;20018;-96
2022/11/03 01:54:09;;;;;;;80.55;41.75;;;;;;;14.88;100.00;95004.06;4968855;28;20089;-95
2022/11/03 01:56:41;;;;;;;100.45;44.88;;;;;;;14.56;100.00;94996.41;4968999;28;20069;-95
2022/11/03 01:59:09;;;;;;;152.50;51.15;;;;;;;14.51;100.00;94999.09;4971408;28;20041;-95
2022/11/03 02:01:50;;;;;;;;;;;;;;;;;;;;;
2022/11/03 02:04:30;;;;;;;88.43;42.50;;;;;;;14.93;100.00;94990.84;4994511;28;20099;-95
2022/11/03 02:07:19;;;;;;;80.38;40.80;;;;;;;15.16;100.00;94986.66;4973552;28;20026;-96
2022/11/03 02:13:15;;;;;;;87.88;43.00;;;;;;;15.33;100.00;94978.25;5002219;28;20041;-96
2022/11/03 02:15:48;;;;;;;74.68;39.38;;;;;;;15.34;100.00;94969.25;4968671;28;20347;-95
2022/11/03 02:18:17;;;;;;;75.80;40.35;;;;;;;15.48;100.00;94976.50;4971435;28;20113;-96
2022/11/03 02:20:48;;;;;;;71.43;37.85;;;;;;;15.53;100.00;94969.31;4972777;28;20026;-95
2022/11/03 02:23:26;;;;;;;89.93;41.53;;;;;;;15.63;100.00;94968.38;4971935;28;20030;-95
2022/11/03 02:26:29;;;;;;;;;;;;;;;;;;;;;
2022/11/03 02:29:47;;;;;;;;;;;;;;;;;;;;;
2022/11/03 02:32:57;;;;;;;;;;;;;;;;;;;;;
2022/11/03 02:36:33;;;;;;;;;;;;;;;;;;;;;
2022/11/03 02:39:16;;;;;;;180.98;44.40;;;;;;;14.67;100.00;94954.91;4998921;28;20030;-95
2022/11/03 02:42:36;;;;;;;;;;;;;;;;;;;;;
2022/11/03 02:45:07;;;;;;;91.47;42.00;;;;;;;15.00;100.00;94957.00;5001068;28;20031;-95
2022/11/03 02:47:36;;;;;;;181.85;45.17;;;;;;;14.79;100.00;94951.94;4967259;28;20140;-95
2022/11/03 02:50:12;;;;;;;108.85;43.42;;;;;;;14.54;100.00;94953.72;4967385;28;20023;-94
2022/11/03 02:52:55;;;;;;;;;;;;;;;;;;;;;
2022/11/03 02:55:37;;;;;;;108.93;45.70;;;;;;;14.72;100.00;94956.75;4987114;28;20117;-96
2022/11/03 02:58:24;;;;;;;;;;;;;;;;;;;;;
2022/11/03 03:01:08;;;;;;;294.90;51.38;;;;;;;14.84;100.00;94956.34;5005896;28;20133;-95
2022/11/03 03:03:47;;;;;;;;;;;;;;;;;;;;;
2022/11/03 03:06:32;;;;;;;;;;;;;;;;;;;;;
2022/11/03 03:12:23;;;;;;;114.38;40.75;;;;;;;15.02;100.00;94962.78;5002349;28;20158;-95
2022/11/03 03:14:57;;;;;;;131.73;42.78;;;;;;;14.78;100.00;94960.13;4968157;28;20033;-94
2022/11/03 03:17:33;;;;;;;;;;;;;;;;;;;;;
2022/11/03 03:20:16;;;;;;;;;;;;;;;;;;;;;
2022/11/03 03:22:57;;;;;;;85.75;38.70;;;;;;;14.94;100.00;94960.75;5000858;28;20124;-95
2022/11/03 03:25:34;;;;;;;105.47;41.13;;;;;;;14.33;100.00;94961.00;4983131;28;20447;-96
2022/11/03 03:28:05;;;;;;;88.25;40.40;;;;;;;14.36;100.00;94955.19;4966415;28;20064;-95
2022/11/03 03:30:31;;;;;;;95.85;40.78;;;;;;;14.21;100.00;94952.66;4982265;28;20109;-95
2022/11/03 03:32:58;;;;;;;79.05;36.30;;;;;;;14.53;100.00;94952.13;5000266;28;20030;-95
2022/11/03 03:35:29;;;;;;;80.20;37.28;;;;;;;14.73;100.00;94960.19;4999661;28;20037;-95
2022/11/03 03:38:06;;;;;;;78.00;34.90;;;;;;;14.92;100.00;94954.94;4998860;28;20023;-94
2022/11/03 03:40:40;;;;;;;798.38;67.05;;;;;;;14.95;100.00;94957.81;4981829;28;20430;-94
2022/11/03 03:43:10;;;;;;;85.10;35.28;;;;;;;15.16;100.00;94967.38;4981720;28;20061;-94
2022/11/03 03:45:36;;;;;;;221.32;40.22;;;;;;;15.22;100.00;94964.41;4982371;28;20029;-95
2022/11/03 03:48:16;;;;;;;;;;;;;;;;;;;;;
2022/11/03 03:50:45;;;;;;;175.80;42.22;;;;;;;14.93;100.00;94957.31;5003611;28;20518;-94
2022/11/03 03:53:13;;;;;;;78.28;34.50;;;;;;;15.24;100.00;94967.53;5002892;28;20085;-95
2022/11/03 03:55:52;;;;;;;;;;;;;;;;;;;;;
2022/11/03 03:58:20;;;;;;;68.13;35.53;;;;;;;15.29;100.00;94969.34;5004238;28;20090;-95
2022/11/03 04:00:46;;;;;;;56.88;31.50;;;;;;;15.30;100.00;94962.22;4984973;28;20028;-95
2022/11/03 04:03:47;;;;;;;73.10;33.45;;;;;;;15.23;100.00;94963.31;5004227;28;20050;-96
2022/11/03 04:06:16;;;;;;;80.78;32.97;;;;;;;15.24;100.00;94956.22;5007186;28;20022;-95
2022/11/03 04:08:45;;;;;;;62.05;32.72;;;;;;;15.19;100.00;94958.88;5005832;28;20064;-95
2022/11/03 04:22:27;;;;;;;;;;;;;;;;;;;;;
2022/11/03 04:24:53;;;;;;;74.32;38.28;;;;;;;14.65;100.00;94957.03;4995014;28;20078;-96
2022/11/03 04:27:44;;;;;;;76.07;38.53;;;;;;;14.75;100.00;94966.72;4994131;28;20022;-95
2022/11/03 04:30:36;;;;;;;88.43;38.25;;;;;;;14.61;100.00;94963.94;4993761;28;20447;-95
2022/11/03 04:33:11;;;;;;;;;;;;;;;;;;;;;
2022/11/03 04:35:46;;;;;;;161.05;39.60;;;;;;;14.41;100.00;94957.00;5009731;28;20105;-96
2022/11/03 04:38:15;;;;;;;122.38;38.45;;;;;;;14.37;100.00;94955.97;4992523;28;20117;-95
2022/11/03 04:40:46;;;;;;;310.95;41.55;;;;;;;14.39;100.00;94953.84;4994883;28;20026;-95
2022/11/03 04:43:34;;;;;;;;;;;;;;;;;;;;;
2022/11/03 04:46:01;;;;;;;343.35;41.78;;;;;;;14.52;100.00;94955.84;5010397;28;20078;-95
2022/11/03 04:48:38;;;;;;;;;;;;;;;;;;;;;
2022/11/03 04:51:18;;;;;;;211.82;35.97;;;;;;;14.70;100.00;94964.13;4994710;28;20097;-94
2022/11/03 04:53:55;;;;;;;134.07;30.88;;;;;;;14.72;100.00;94948.06;4992341;28;20046;-96
2022/11/03 04:56:33;;;;;;;;;;;;;;;;;;;;;
2022/11/03 04:58:59;;;;;;;417.17;38.78;;;;;;;14.20;100.00;94954.53;4992384;28;20117;-95
2022/11/03 05:01:28;;;;;;;60.78;27.67;;;;;;;14.52;100.00;94952.41;4996025;28;20343;-95
2022/11/03 05:03:58;;;;;;;55.85;24.65;;;;;;;14.75;100.00;94940.34;4994392;28;20343;-94
2022/11/03 05:06:38;;;;;;;;;;;;;;;;;;;;;
2022/11/03 05:09:21;;;;;;;;;;;;;;;;;;;;;
2022/11/03 05:11:47;;;;;;;;;;;;;;;14.48;100.00;94936.34;4989016;28;20139;-95
2022/11/03 05:14:19;;;;;;;151.15;27.55;;;;;;;14.30;100.00;94940.47;4989787;28;19975;-95
2022/11/03 05:16:52;;;;;;;73.43;23.83;;;;;;;14.34;100.00;94935.41;4989704;28;20026;-95
2022/11/03 05:22:52;;;;;;;;;;;;;;;;;;;;;
2022/11/03 05:25:49;;;;;;;;;;;;;;;;;;;;;
2022/11/03 05:28:28;;;;;;;47.10;24.60;;;;;;;14.77;100.00;94922.38;4998307;28;20056;-95
2022/11/03 05:30:56;;;;;;;45.22;25.02;;;;;;;14.88;100.00;94919.66;4997645;28;20026;-95
2022/11/03 05:33:28;;;;;;;51.78;26.02;;;;;;;14.56;100.00;94922.56;4994408;28;20030;-95
2022/11/03 05:36:10;;;;;;;;;;;;;;;;;;;;;
2022/11/03 05:38:35;;;;;;;425.92;41.30;;;;;;;14.35;100.00;94918.56;4990783;28;20113;-94
2022/11/03 05:41:01;;;;;;;326.60;39.75;;;;;;;13.87;100.00;94927.09;4987316;28;20069;-95
2022/11/03 05:43:28;;;;;;;496.45;51.20;;;;;;;13.95;100.00;94916.75;4978248;28;20034;-94
2022/11/03 05:45:57;;;;;;;77.03;35.42;;;;;;;14.40;100.00;94921.91;4969974;28;20427;-93
2022/11/03 05:48:33;;;;;;;115.68;34.60;;;;;;;14.38;100.00;94928.56;4948602;28;20031;-93
2022/11/03 05:51:08;;;;;;;462.90;42.70;;;;;;;14.27;100.00;94935.75;4971584;28;20053;-94
2022/11/03 05:53:43;;;;;;;234.68;33.78;;;;;;;14.06;100.00;94948.28;4991423;28;20034;-94
2022/11/03 05:56:20;;;;;;;321.02;34.08;;;;;;;14.27;100.00;94951.56;4968872;28;20387;-94
2022/11/03 05:58:46;;;;;;;73.53;29.88;;;;;;;14.50;100.00;94942.16;4985291;28;20030;-94
2022/11/03 06:01:27;;;;;;;;;;;;;;;;;;;;;
2022/11/03 06:03:55;;;;;;;66.65;29.10;;;;;;;14.77;100.00;94943.50;5000261;28;20034;-94
2022/11/03 06:06:33;;;;;;;52.13;27.48;;;;;;;14.79;100.00;94938.75;4983474;28;20030;-94
2022/11/03 06:09:21;;;;;;;;;;;;;;;;;;;;;
2022/11/03 06:12:02;;;;;;;;;;;;;;;;;;;;;
2022/11/03 06:14:32;;;;;;;53.50;26.27;;;;;;;15.31;100.00;94934.75;4991087;28;20086;-94
2022/11/03 06:17:12;;;;;;;106.03;29.40;;;;;;;14.66;100.00;94921.69;4989436;28;20034;-94
2022/11/03 06:19:47;;;;;;;81.57;28.90;;;;;;;14.75;100.00;94932.44;4994455;28;20049;-95
2022/11/03 06:22:23;;;;;;;111.65;31.10;;;;;;;14.56;100.00;94935.75;4995246;28;20493;-95
2022/11/03 06:24:50;;;;;;;55.75;27.77;;;;;;;14.69;100.00;94938.81;4987221;28;20548;-94
2022/11/03 06:27:43;;;;;;;104.85;31.35;;;;;;;14.75;100.00;94940.34;4971889;28;20027;-95
2022/11/03 06:30:25;;;;;;;61.83;26.73;;;;;;;15.08;100.00;94945.03;4972169;28;20567;-86
2022/11/03 06:32:52;;;;;;;65.30;26.98;;;;;;;14.88;100.00;94941.56;4962232;28;20355;-86
2022/11/03 06:35:18;;;;;;;83.72;29.75;;;;;;;14.67;100.00;94936.44;4979853;28;20125;-86
2022/11/03 06:37:44;;;;;;;439.92;40.47;;;;;;;14.89;100.00;94945.75;4957695;29;20171;-85
2022/11/03 06:40:09;;;;;;;102.80;28.75;;;;;;;15.24;100.00;94943.78;4942332;29;20041;-85
2022/11/03 06:42:35;;;;;;;300.85;35.50;;;;;;;14.84;100.00;94949.25;4959795;29;20046;-85
2022/11/03 06:45:02;;;;;;;65.32;28.58;;;;;;;15.01;100.00;94947.22;4942672;29;20035;-85
2022/11/03 06:47:28;;;;;;;78.60;29.00;;;;;;;15.33;100.00;94945.81;4942690;29;20357;-85
2022/11/03 06:49:58;;;;;;;292.23;35.35;;;;;;;15.01;100.00;94948.00;4959679;29;20035;-85
2022/11/03 06:52:32;;;;;;;179.10;30.95;;;;;;;15.14;100.00;94951.84;4942187;29;20027;-85
2022/11/03 06:55:08;;;;;;;315.50;34.65;;;;;;;14.63;100.00;94948.63;4942601;29;20059;-85
2022/11/03 06:57:37;;;;;;;396.20;40.45;;;;;;;14.89;100.00;94950.25;4942455;29;20035;-85
2022/11/03 07:00:20;;;;;;;303.60;36.33;;;;;;;15.22;100.00;94951.19;4942456;29;20062;-85
2022/11/03 07:03:16;;;;;;;93.22;26.27;;;;;;;15.63;100.00;94947.25;4943333;29;20059;-85
2022/11/03 07:05:44;;;;;;;94.72;26.83;;;;;;;15.64;100.00;94948.84;4942316;29;20031;-85
2022/11/03 07:08:31;;;;;;;392.23;34.92;;;;;;;15.44;100.00;94949.09;4956929;28;20039;-85
2022/11/03 07:11:01;;;;;;;358.55;35.95;;;;;;;15.30;100.00;94954.28;4980298;28;20352;-85
2022/11/03 07:13:28;;;;;;;53.45;25.90;;;;;;;15.30;100.00;94951.66;4980541;28;20176;-85
2022/11/03 07:15:53;;;;;;;514.60;40.63;;;;;;;14.88;100.00;94943.41;4976734;28;20030;-85
2022/11/03 07:18:26;;;;;;;58.00;28.33;;;;;;;15.35;100.00;94941.81;4961408;28;20414;-85
2022/11/03 07:20:53;;;;;;;42.63;25.33;;;;;;;15.80;100.00;94948.63;4960753;28;20038;-84
2022/11/03 07:23:21;;;;;;;65.13;25.27;;;;;;;15.69;100.00;94943.50;4961260;28;20029;-85
2022/11/03 07:25:52;;;;;;;110.40;25.65;;;;;;;15.84;100.00;94942.47;4969929;28;20030;-85
2022/11/03 07:28:17;;;;;;;45.03;24.08;;;;;;;16.14;100.00;94945.00;4997898;28;20034;-85
2022/11/03 07:30:43;;;;;;;57.05;23.60;;;;;;;16.18;100.00;94950.50;4960732;28;20074;-84
2022/11/03 07:33:16;;;;;;;107.80;24.83;;;;;;;15.93;100.00;94936.59;4961131;28;20038;-85
2022/11/03 07:35:43;;;;;;;93.28;24.70;;;;;;;15.85;100.00;94943.28;4944935;28;20038;-85
2022/11/03 07:38:20;;;;;;;79.68;24.80;;;;;;;16.18;100.00;94948.63;4978229;28;20443;-85
2022/11/03 07:40:46;;;;;;;142.35;23.77;;;;;;;15.93;100.00;94945.31;4960764;28;20030;-85
2022/11/03 07:43:14;;;;;;;35.72;20.67;;;;;;;16.19;100.00;94942.25;4964054;28;20040;-85
2022/11/03 07:45:44;;;;;;;181.63;26.13;;;;;;;15.74;100.00;94955.03;4980407;28;20034;-85
2022/11/03 07:48:34;;;;;;;135.05;25.55;;;;;;;15.77;100.00;94957.09;4964005;28;20431;-85
2022/11/03 07:51:14;;;;;;;51.55;21.98;;;;;;;15.77;100.00;94952.63;4960597;28;20110;-84
2022/11/03 07:53:42;;;;;;;566.00;44.28;;;;;;;15.21;100.00;94948.84;4960856;28;20462;-85
2022/11/03 07:56:29;;;;;;;263.77;31.20;;;;;;;15.18;100.00;94950.19;4976846;28;20353;-85
2022/11/03 07:59:12;;;;;;;57.22;27.20;;;;;;;15.51;100.00;94952.97;4960802;28;20031;-85
2022/11/03 08:01:43;;;;;;;90.80;25.90;;;;;;;15.81;100.00;94958.13;4960272;28;20094;-85
2022/11/03 08:04:16;;;;;;;75.03;26.88;;;;;;;15.30;100.00;94960.34;4960578;28;20428;-85
2022/11/03 08:06:42;;;;;;;55.78;24.20;;;;;;;15.55;100.00;94958.47;4960580;28;20074;-85
2022/11/03 08:09:07;;;;;;;64.38;23.75;;;;;;;15.15;100.00;94965.81;4959954;28;20065;-85
2022/11/03 08:11:32;;;;;;;51.88;22.20;;;;;;;15.90;100.00;94961.72;4960157;28;20030;-85
2022/11/03 08:13:58;;;;;;;62.28;22.23;;;;;;;14.86;100.00;94964.00;4960529;28;20472;-84
2022/11/03 08:16:23;;;;;;;71.25;24.13;;;;;;;15.15;100.00;94956.03;4951411;28;20122;-85
2022/11/03 08:18:49;;;;;;;57.33;24.60;;;;;;;15.32;100.00;94957.44;4960534;28;20046;-84
2022/11/03 08:21:16;;;;;;;41.80;20.80;;;;;;;15.74;100.00;94960.31;4977132;28;20102;-85
2022/11/03 08:23:41;;;;;;;43.45;20.50;;;;;;;16.21;100.00;94953.34;4966683;28;20431;-85
2022/11/03 08:26:07;;;;;;;43.28;21.33;;;;;;;15.82;100.00;94952.53;4952394;28;20045;-85
2022/11/03 08:28:33;;;;;;;49.88;21.65;;;;;;;16.00;100.00;94954.72;4963549;28;20444;-85
2022/11/03 08:31:03;;;;;;;40.33;19.17;;;;;;;16.44;100.00;94942.94;4979345;28;20037;-84
2022/11/03 08:33:29;;;;;;;37.70;18.98;;;;;;;16.80;100.00;94944.97;4964172;28;20070;-84
2022/11/03 08:35:54;;;;;;;39.83;20.15;;;;;;;16.46;100.00;94942.66;4979729;28;20030;-84
2022/11/03 08:38:20;;;;;;;37.05;18.27;;;;;;;15.92;100.00;94938.47;4963543;28;20044;-85
2022/11/03 08:40:45;;;;;;;38.28;19.30;;;;;;;15.80;100.00;94930.16;4979147;28;20112;-84
2022/11/03 08:43:11;;;;;;;44.70;19.08;;;;;;;15.61;100.00;94930.13;4952926;28;20030;-84
2022/11/03 08:45:36;;;;;;;41.53;19.27;;;;;;;15.52;100.00;94920.19;4960307;28;20034;-84
2022/11/03 08:48:02;;;;;;;36.97;18.95;;;;;;;15.22;100.00;94916.13;4959778;28;20030;-85
2022/11/03 08:50:27;;;;;;;44.50;19.70;;;;;;;15.68;100.00;94918.16;4959851;28;20045;-84
2022/11/03 08:52:53;;;;;;;40.53;19.70;;;;;;;16.00;100.00;94917.72;4960246;28;20031;-84
2022/11/03 08:55:21;;;;;;;42.40;21.50;;;;;;;16.02;100.00;94907.66;4947994;28;20049;-84
2022/11/03 08:57:46;;;;;;;36.55;18.90;;;;;;;17.23;100.00;94906.09;4973008;28;20058;-84
2022/11/03 09:00:13;;;;;;;39.17;19.73;;;;;;;17.27;100.00;94900.97;4976001;28;20030;-84
2022/11/03 09:02:39;;;;;;;43.58;19.38;;;;;;;17.01;100.00;94901.50;4975951;28;20463;-84
2022/11/03 09:05:06;;;;;;;39.83;18.42;;;;;;;17.14;100.00;94902.56;4969712;28;20039;-84
2022/11/03 09:07:32;;;;;;;39.83;18.83;;;;;;;16.91;100.00;94899.78;4960250;28;20030;-84
2022/11/03 09:09:57;;;;;;;46.53;20.50;;;;;;;16.99;100.00;94899.13;4944150;28;20042;-84
2022/11/03 09:12:23;;;;;;;43.22;20.55;;;;;;;17.23;100.00;94898.91;4959554;28;20035;-84
2022/11/03 09:14:48;;;;;;;41.25;19.63;;;;;;;17.29;100.00;94885.59;4959976;28;20034;-84
2022/11/03 09:17:13;;;;;;;38.60;19.73;;;;;;;17.78;100.00;94883.16;4960073;28;20082;-84
2022/11/03 09:19:39;;;;;;;36.63;17.08;;;;;;;17.76;100.00;94882.69;4963219;28;20113;-84
2022/11/03 09:22:04;;;;;;;34.55;17.20;;;;;;;18.01;100.00;94886.63;4955097;28;20436;-84
2022/11/03 09:24:30;;;;;;;31.40;16.52;;;;;;;17.97;100.00;94890.19;4980360;28;20031;-84
2022/11/03 09:26:55;;;;;;;31.58;17.40;;;;;;;17.99;100.00;94888.00;4980363;28;20340;-84
2022/11/03 09:29:21;;;;;;;36.05;17.48;;;;;;;16.06;100.00;94872.44;4963347;28;20064;-84
2022/11/03 09:31:47;;;;;;;31.40;16.10;;;;;;;16.55;100.00;94869.47;4946770;28;20089;-84
2022/11/03 09:34:12;;;;;;;32.25;15.68;;;;;;;17.74;100.00;94874.25;4963346;28;20058;-84
2022/11/03 09:36:38;;;;;;;29.35;15.20;;;;;;;18.34;100.00;94877.63;4980404;28;20034;-84
2022/11/03 09:39:03;;;;;;;28.73;16.00;;;;;;;17.50;100.00;94872.66;4963174;28;20038;-84
2022/11/03 09:41:30;;;;;;;32.85;16.58;;;;;;;18.39;100.00;94882.03;4976910;28;20046;-84
2022/11/03 09:43:56;;;;;;;28.42;15.02;;;;;;;18.65;100.00;94871.56;4970892;28;20035;-84
2022/11/03 09:46:22;;;;;;;27.23;15.27;;;;;;;18.45;100.00;94873.66;4969540;28;20043;-84
2022/11/03 09:48:47;;;;;;;28.15;14.65;;;;;;;18.04;100.00;94872.00;4980410;28;20038;-84
2022/11/03 09:51:18;;;;;;;27.73;14.40;;;;;;;18.88;100.00;94871.47;4998054;28;20037;-85
2022/11/03 09:53:43;;;;;;;24.52;13.15;;;;;;;19.01;100.00;94865.28;4982212;28;20030;-85
2022/11/03 09:56:20;;;;;;;29.48;15.48;;;;;;;17.72;100.00;94866.63;4982240;28;20038;-85
2022/11/03 09:58:46;;;;;;;29.48;14.15;;;;;;;18.57;100.00;94867.75;4964158;28;20033;-85
2022/11/03 10:01:12;;;;;;;27.88;14.75;;;;;;;18.94;100.00;94867.59;4946448;28;20027;-84
2022/11/03 10:03:40;;;;;;;22.85;13.13;;;;;;;19.78;100.00;94867.56;4963222;28;20116;-85
2022/11/03 10:06:06;;;;;;;29.02;14.48;;;;;;;18.45;100.00;94854.31;4982332;28;20112;-85
2022/11/03 10:08:34;;;;;;;25.85;14.45;;;;;;;19.30;100.00;94850.66;4981856;28;20452;-85
2022/11/03 10:11:00;;;;;;;24.67;14.00;;;;;;;19.64;100.00;94841.13;4981641;28;20026;-85
2022/11/03 10:13:35;;;;;;;27.73;14.55;;;;;;;18.83;100.00;94842.41;4981894;28;20030;-85
2022/11/03 10:16:04;;;;;;;31.00;15.45;;;;;;;18.33;100.00;94831.78;4981883;28;20033;-85
2022/11/03 10:18:29;;;;;;;30.95;15.82;;;;;;;18.16;100.00;94831.69;4965747;28;20038;-84
2022/11/03 10:20:55;;;;;;;29.00;15.57;;;;;;;18.31;100.00;94827.84;4981278;28;20038;-85
2022/11/03 10:23:21;;;;;;;27.40;14.50;;;;;;;18.79;100.00;94827.13;4964367;28;20061;-85
2022/11/03 10:25:46;;;;;;;29.40;15.85;;;;;;;17.53;100.00;94827.03;4979352;28;20039;-85
2022/11/03 10:28:16;;;;;;;32.85;17.33;;;;;;;17.21;100.00;94828.78;4998693;28;20040;-85
2022/11/03 10:30:54;;;;;;;29.65;16.25;;;;;;;18.03;100.00;94818.22;4980949;28;20390;-85
2022/11/03 10:33:29;;;;;;;31.52;16.23;;;;;;;18.63;100.00;94810.03;4980874;28;20348;-85
2022/11/03 10:36:18;;;;;;;32.00;15.95;;;;;;;18.26;100.00;94809.44;4981531;28;20117;-84
2022/11/03 10:38:44;;;;;;;30.92;15.68;;;;;;;18.28;100.00;94807.25;4986245;28;20065;-85
2022/11/03 10:41:20;;;;;;;31.58;15.27;;;;;;;18.69;100.00;94797.41;4998215;28;20039;-85
2022/11/03 10:44:16;;;;;;;26.63;14.20;;;;;;;18.45;100.00;94793.28;4998735;28;20034;-85
2022/11/03 10:47:01;;;;;;;28.20;15.20;;;;;;;19.09;100.00;94792.03;4960666;28;20044;-85
2022/11/03 10:49:28;;;;;;;30.17;16.33;;;;;;;18.06;100.00;94785.78;4946061;28;20324;-85
2022/11/03 10:52:02;;;;;;;28.70;15.52;;;;;;;18.34;100.00;94792.75;4973250;28;20390;-85
2022/11/03 10:54:28;;;;;;;32.03;15.88;;;;;;;18.33;100.00;94796.50;4977625;28;20038;-86
2022/11/03 10:56:54;;;;;;;29.27;15.60;;;;;;;19.06;100.00;94793.44;4981074;28;20030;-85
2022/11/03 10:59:30;;;;;;;31.10;14.40;;;;;;;19.44;100.00;94784.09;4981083;28;20030;-85
2022/11/03 11:01:57;;;;;;;29.45;14.38;;;;;;;19.69;100.00;94773.75;4980790;28;20045;-85
2022/11/03 11:04:22;;;;;;;28.70;14.70;;;;;;;19.04;100.00;94777.03;4980885;28;20030;-85
2022/11/03 11:06:48;;;;;;;24.83;13.15;;;;;;;19.42;100.00;94783.63;4980988;28;20041;-85
2022/11/03 11:09:17;;;;;;;26.70;14.13;;;;;;;19.54;100.00;94777.69;4964955;28;20435;-85
2022/11/03 11:11:58;;;;;;;27.90;14.60;;;;;;;19.60;100.00;94779.06;4980527;28;20054;-85
2022/11/03 11:14:27;;;;;;;29.05;15.07;;;;;;;19.23;100.00;94769.88;4978700;28;20045;-84
2022/11/03 11:16:53;;;;;;;27.73;14.15;;;;;;;18.94;100.00;94769.38;4978622;28;20042;-84
2022/11/03 11:19:21;;;;;;;23.88;13.82;;;;;;;19.10;100.00;94767.06;4961248;28;20031;-84
2022/11/03 11:21:46;;;;;;;29.00;14.98;;;;;;;19.33;100.00;94762.38;4961047;28;20031;-84
2022/11/03 11:24:12;;;;;;;27.42;15.00;;;;;;;18.51;100.00;94762.88;4995047;28;20034;-84
2022/11/03 11:26:38;;;;;;;26.90;15.73;;;;;;;17.76;100.00;94760.78;4999947;28;20494;-84
2022/11/03 11:29:07;;;;;;;30.00;15.13;;;;;;;17.83;100.00;94761.16;4999980;28;20038;-84
2022/11/03 11:31:43;;;;;;;30.92;16.45;;;;;;;17.73;100.00;94764.06;5001435;28;20038;-84
2022/11/03 11:34:09;;;;;;;31.67;15.05;;;;;;;18.21;100.00;94759.97;4944924;28;20027;-85
2022/11/03 11:36:41;;;;;;;28.05;15.18;;;;;;;18.79;100.00;94766.06;4978361;28;20348;-85
2022/11/03 11:39:09;;;;;;;33.35;14.90;;;;;;;19.30;100.00;94759.56;4961510;28;20061;-85
2022/11/03 11:42:03;;;;;;;31.77;15.95;;;;;;;19.51;100.00;94749.09;4977767;28;20121;-85
2022/11/03 11:44:53;;;;;;;29.77;15.55;;;;;;;18.89;100.00;94741.09;4977910;28;20039;-84
2022/11/03 11:47:37;;;;;;;32.55;15.00;;;;;;;18.69;100.00;94745.13;4961127;28;20041;-84
2022/11/03 11:50:06;;;;;;;29.23;14.32;;;;;;;18.78;100.00;94739.81;4978024;28;20034;-84
2022/11/03 11:52:41;;;;;;;24.77;14.15;;;;;;;19.74;100.00;94736.38;4977751;28;20452;-84
2022/11/03 11:55:28;;;;;;;28.35;15.20;;;;;;;19.89;100.00;94735.06;4984433;28;20444;-89
2022/11/03 11:57:54;;;;;;;28.45;15.35;;;;;;;18.47;100.00;94722.13;4963268;28;20076;-88
2022/11/03 12:00:25;;;;;;;26.92;15.05;;;;;;;18.36;100.00;94719.75;4960371;28;20070;-89
2022/11/03 12:02:54;;;;;;;26.48;15.10;;;;;;;19.62;100.00;94710.44;4961380;28;20416;-89
2022/11/03 12:05:28;;;;;;;29.42;16.10;;;;;;;19.78;100.00;94717.91;4964147;28;20435;-89
2022/11/03 12:07:58;;;;;;;33.42;16.48;;;;;;;19.37;100.00;94725.34;4992850;28;20029;-90
2022/11/03 12:10:26;;;;;;;26.42;15.48;;;;;;;19.51;100.00;94717.19;4999028;28;20124;-90
2022/11/03 12:12:55;;;;;;;31.77;15.38;;;;;;;19.97;100.00;94719.47;4973406;28;20108;-89
2022/11/03 12:15:47;;;;;;;29.40;14.95;;;;;;;20.25;100.00;94711.06;4999619;28;20033;-89
2022/11/03 12:18:27;;;;;;;29.20;14.82;;;;;;;20.10;100.00;94705.16;4983518;28;20419;-88
2022/11/03 12:20:53;;;;;;;33.80;16.65;;;;;;;19.60;100.00;94706.56;4998786;28;20435;-88
2022/11/03 12:23:36;;;;;;;33.50;16.23;;;;;;;19.18;100.00;94702.53;4999552;28;20123;-88
2022/11/03 12:26:04;;;;;;;33.35;17.42;;;;;;;19.25;100.00;94699.41;4983351;28;20033;-88
2022/11/03 12:28:33;;;;;;;33.92;16.70;;;;;;;19.39;100.00;94695.81;4983354;28;20030;-88
2022/11/03 12:30:59;;;;;;;33.67;16.85;;;;;;;19.51;100.00;94685.31;4998934;28;20029;-88
2022/11/03 12:33:28;;;;;;;34.72;17.40;;;;;;;19.56;100.00;94679.03;4999269;28;20030;-89
2022/11/03 12:35:54;;;;;;;35.42;18.00;;;;;;;19.75;100.00;94673.34;4999226;28;20510;-89
2022/11/03 12:38:20;;;;;;;36.33;17.90;;;;;;;19.63;100.00;94668.72;4999440;28;20036;-89
2022/11/03 12:40:45;;;;;;;34.00;17.83;;;;;;;19.56;100.00;94666.53;4998738;28;20033;-89
2022/11/03 12:43:10;;;;;;;36.22;18.42;;;;;;;18.96;100.00;94663.63;4999278;28;20030;-89
2022/11/03 12:45:36;;;;;;;38.20;18.27;;;;;;;19.36;100.00;94652.81;4999337;28;20026;-89
2022/11/03 12:48:01;;;;;;;38.58;18.42;;;;;;;19.14;100.00;94659.09;4993269;28;20030;-89
2022/11/03 12:50:27;;;;;;;40.72;19.58;;;;;;;19.21;100.00;94642.69;4971058;28;20424;-89